Time;durP1;ratioP1;P1;durP2;ratioP2;P2;SDS_P1;SDS_P2;PMS_P1;PMS_P2;Temp;Humidity;BMP_temperature;BMP_pressure;BME280_temperature;BME280_humidity;BME280_pressure;Samples;Min_cycle;Max_cycle;Signal;HPM_P1;HPM_P2
2023/08/20 00:01:38;;;;;;;1.10;0.60;;;22.60;99.90;;;;;;5112834;28;20247;-68
2023/08/20 00:04:06;;;;;;;0.57;0.50;;;22.50;99.90;;;;;;5112859;28;20206;-67
2023/08/20 00:06:34;;;;;;;0.90;0.80;;;22.70;99.90;;;;;;5113087;28;20190;-70
2023/08/20 00:09:02;;;;;;;1.53;0.47;;;23.00;99.90;;;;;;5112643;28;20182;-68
2023/08/20 00:11:29;;;;;;;0.70;0.40;;;23.30;99.90;;;;;;5112538;28;20186;-70
2023/08/20 00:13:56;;;;;;;0.40;0.40;;;23.70;99.90;;;;;;5121081;27;20198;-69
2023/08/20 00:16:24;;;;;;;0.40;0.40;;;23.70;99.90;;;;;;5123157;27;20262;-69
2023/08/20 00:18:52;;;;;;;0.40;0.40;;;23.10;99.90;;;;;;5112029;28;20257;-69
2023/08/20 00:21:19;;;;;;;1.40;0.40;;;23.30;99.90;;;;;;5112067;28;20193;-69
2023/08/20 00:23:47;;;;;;;0.40;0.30;;;23.70;99.90;;;;;;5111642;28;20202;-71
2023/08/20 00:26:14;;;;;;;0.73;0.40;;;23.90;99.90;;;;;;5115101;27;20624;-70
2023/08/20 00:28:42;;;;;;;0.20;0.20;;;24.20;99.90;;;;;;5112584;28;20265;-69
2023/08/20 00:31:09;;;;;;;0.40;0.30;;;24.60;96.10;;;;;;5112084;28;20182;-70
2023/08/20 00:33:36;;;;;;;0.50;0.30;;;24.30;95.10;;;;;;5112497;28;20174;-72
2023/08/20 00:36:03;;;;;;;0.73;0.40;;;24.10;97.30;;;;;;5113425;28;20174;-71
2023/08/20 00:38:31;;;;;;;0.40;0.40;;;24.20;98.10;;;;;;5114087;28;20171;-69
2023/08/20 00:40:58;;;;;;;0.80;0.53;;;24.10;96.00;;;;;;5114178;28;20167;-69
2023/08/20 00:43:26;;;;;;;0.50;0.40;;;24.00;96.30;;;;;;5113771;28;20177;-69
2023/08/20 00:45:53;;;;;;;0.63;0.40;;;24.10;96.40;;;;;;5113767;28;20181;-71
2023/08/20 00:48:21;;;;;;;1.70;0.23;;;24.60;93.30;;;;;;5092286;28;20202;-69
2023/08/20 00:50:49;;;;;;;1.33;0.40;;;24.80;91.60;;;;;;5111644;28;20534;-70
2023/08/20 00:53:16;;;;;;;0.60;0.50;;;25.00;91.80;;;;;;5112106;28;20187;-69
2023/08/20 00:55:44;;;;;;;0.30;0.30;;;24.80;90.50;;;;;;5110977;28;20197;-69
2023/08/20 00:58:12;;;;;;;0.40;0.40;;;25.10;95.30;;;;;;5111993;28;20186;-68
2023/08/20 01:00:39;;;;;;;0.70;0.70;;;25.40;91.40;;;;;;5117289;27;20207;-70
2023/08/20 01:03:07;;;;;;;0.33;0.30;;;25.20;89.90;;;;;;5119995;27;20311;-73
2023/08/20 01:05:42;;;;;;;0.80;0.50;;;25.20;89.90;;;;;;5111558;28;20214;-71
2023/08/20 01:08:29;;;;;;;0.50;0.50;;;25.40;85.80;;;;;;5112074;28;20181;-70
2023/08/20 01:11:24;;;;;;;0.40;0.40;;;25.20;85.20;;;;;;5111650;28;20239;-72
2023/08/20 01:13:54;;;;;;;0.60;0.50;;;24.90;89.20;;;;;;5111196;28;20187;-70
2023/08/20 01:16:22;;;;;;;1.40;1.30;;;25.20;88.40;;;;;;5109573;28;20600;-69
2023/08/20 01:18:49;;;;;;;0.67;0.40;;;25.50;85.40;;;;;;5100656;28;20218;-71
2023/08/20 01:21:39;;;;;;;0.50;0.47;;;25.70;83.90;;;;;;5110646;28;20186;-71
2023/08/20 01:24:27;;;;;;;0.50;0.33;;;26.30;80.50;;;;;;5111788;28;20199;-70
2023/08/20 01:27:09;;;;;;;0.27;0.27;;;26.30;79.20;;;;;;5111845;28;20659;-70
2023/08/20 01:29:38;;;;;;;2.97;0.60;;;26.10;79.40;;;;;;5111870;28;20371;-71
2023/08/20 01:32:06;;;;;;;0.53;0.47;;;25.90;75.30;;;;;;5111448;28;20711;-72
2023/08/20 01:34:33;;;;;;;0.37;0.30;;;26.90;69.70;;;;;;5111723;28;20178;-72
2023/08/20 01:37:01;;;;;;;0.53;0.50;;;26.80;72.70;;;;;;5111192;28;20678;-70
2023/08/20 01:39:28;;;;;;;2.17;0.50;;;26.10;73.60;;;;;;5111355;28;20202;-70
2023/08/20 01:41:55;;;;;;;0.87;0.40;;;26.20;65.80;;;;;;5111884;28;20194;-68
2023/08/20 01:44:22;;;;;;;0.67;0.57;;;26.40;71.50;;;;;;5111050;28;20210;-70
2023/08/20 01:46:50;;;;;;;0.30;0.23;;;26.30;67.20;;;;;;5126425;28;20311;-70
2023/08/20 01:49:17;;;;;;;0.87;0.87;;;25.90;65.70;;;;;;5111809;28;20185;-70
2023/08/20 01:51:44;;;;;;;1.03;0.57;;;25.70;68.40;;;;;;5111733;28;20690;-69
2023/08/20 01:54:12;;;;;;;0.30;0.30;;;25.90;65.10;;;;;;5111446;28;20183;-70
2023/08/20 01:56:40;;;;;;;0.33;0.33;;;26.60;65.70;;;;;;5093221;28;20205;-70
2023/08/20 01:59:07;;;;;;;1.20;0.30;;;27.10;58.10;;;;;;5111508;28;20179;-70
2023/08/20 02:01:34;;;;;;;0.87;0.30;;;28.00;53.70;;;;;;5112393;28;20178;-70
2023/08/20 02:04:02;;;;;;;0.40;0.40;;;28.00;56.70;;;;;;5111114;28;20690;-70
2023/08/20 02:06:29;;;;;;;0.87;0.50;;;27.30;54.40;;;;;;5111202;28;20189;-70
2023/08/20 02:08:59;;;;;;;0.50;0.40;;;26.60;55.50;;;;;;5111294;28;20670;-70
2023/08/20 02:11:26;;;;;;;0.40;0.40;;;26.50;54.60;;;;;;5111474;28;20192;-70
2023/08/20 02:13:54;;;;;;;0.83;0.40;;;26.30;53.70;;;;;;5111987;28;20197;-70
2023/08/20 02:16:21;;;;;;;1.03;0.40;;;26.50;55.40;;;;;;5111665;28;20171;-70
2023/08/20 02:18:48;;;;;;;0.40;0.40;;;25.90;55.20;;;;;;5115840;28;20256;-70
2023/08/20 02:21:16;;;;;;;1.10;0.50;;;26.40;52.70;;;;;;5098398;28;20699;-70
2023/08/20 02:23:43;;;;;;;0.77;0.50;;;26.80;51.30;;;;;;5116542;28;20200;-69
2023/08/20 02:26:11;;;;;;;2.13;0.60;;;26.80;47.60;;;;;;5116807;28;20658;-70
2023/08/20 02:28:38;;;;;;;0.90;0.40;;;27.00;45.10;;;;;;5116188;28;20236;-70
2023/08/20 02:31:06;;;;;;;0.70;0.50;;;26.60;43.00;;;;;;5116653;28;20215;-69
2023/08/20 02:33:33;;;;;;;0.93;0.50;;;27.00;41.20;;;;;;5116532;28;20568;-69
2023/08/20 02:36:04;;;;;;;0.97;0.70;;;27.00;42.20;;;;;;5115639;28;20190;-69
2023/08/20 02:38:32;;;;;;;0.73;0.53;;;26.70;42.30;;;;;;5092263;28;20178;-72
2023/08/20 02:40:59;;;;;;;0.53;0.40;;;27.00;41.90;;;;;;5114843;28;20587;-72
2023/08/20 02:43:26;;;;;;;0.40;0.40;;;27.30;41.90;;;;;;5114690;28;20171;-70
2023/08/20 02:45:54;;;;;;;0.67;0.50;;;27.20;40.80;;;;;;5113746;27;20213;-72
2023/08/20 02:48:21;;;;;;;0.77;0.50;;;27.40;39.60;;;;;;5103255;27;20290;-70
2023/08/20 02:50:48;;;;;;;0.50;0.50;;;27.30;40.70;;;;;;5108506;27;20190;-71
2023/08/20 02:53:16;;;;;;;0.60;0.60;;;27.40;38.50;;;;;;5113520;28;20190;-71
2023/08/20 02:55:43;;;;;;;0.30;0.30;;;27.60;38.80;;;;;;5113865;28;20671;-71
2023/08/20 02:58:11;;;;;;;0.30;0.30;;;27.00;37.80;;;;;;5114188;28;20173;-69
2023/08/20 03:00:38;;;;;;;0.57;0.50;;;26.90;38.70;;;;;;5114020;28;20182;-71
2023/08/20 03:03:08;;;;;;;1.00;0.63;;;27.30;39.50;;;;;;5114073;28;20185;-71
2023/08/20 03:08:57;;;;;;;0.40;0.40;;;27.70;36.40;;;;;;5113397;28;20189;-69
2023/08/20 03:11:24;;;;;;;0.80;0.50;;;27.80;35.00;;;;;;5095894;28;20223;-72
2023/08/20 03:13:51;;;;;;;0.37;0.37;;;27.30;35.10;;;;;;5113680;28;20181;-70
2023/08/20 03:16:19;;;;;;;0.50;0.33;;;27.30;35.40;;;;;;5113550;28;20190;-69
2023/08/20 03:18:46;;;;;;;0.80;0.50;;;27.40;34.50;;;;;;5113558;28;20796;-69
2023/08/20 03:21:13;;;;;;;1.07;0.40;;;27.10;32.30;;;;;;5113250;28;20179;-69
2023/08/20 03:23:41;;;;;;;0.30;0.30;;;26.90;32.20;;;;;;5113823;28;20179;-69
2023/08/20 03:26:08;;;;;;;2.17;0.40;;;26.70;31.50;;;;;;5113769;28;20547;-69
2023/08/20 03:28:35;;;;;;;0.30;0.30;;;26.70;32.10;;;;;;5113420;28;20178;-69
2023/08/20 03:31:02;;;;;;;0.30;0.30;;;26.60;31.30;;;;;;5113842;28;20239;-70
2023/08/20 03:33:30;;;;;;;0.40;0.40;;;26.80;31.40;;;;;;5113316;28;20175;-70
2023/08/20 03:35:57;;;;;;;0.70;0.50;;;26.80;29.10;;;;;;5113259;28;20269;-71
2023/08/20 03:38:25;;;;;;;0.30;0.30;;;27.00;32.70;;;;;;5113516;28;20171;-72
2023/08/20 03:40:52;;;;;;;0.40;0.40;;;27.10;30.70;;;;;;5113327;28;20204;-71
2023/08/20 03:43:19;;;;;;;1.47;0.50;;;26.90;28.90;;;;;;5112879;28;20183;-69
2023/08/20 03:45:51;;;;;;;0.50;0.30;;;27.00;31.70;;;;;;5112751;28;20214;-72
2023/08/20 03:48:19;;;;;;;0.57;0.40;;;27.40;30.80;;;;;;5108461;28;20182;-72
2023/08/20 03:50:46;;;;;;;0.40;0.40;;;27.40;30.50;;;;;;5124417;27;20174;-71
2023/08/20 03:53:14;;;;;;;0.63;0.40;;;26.60;29.90;;;;;;5124817;27;20583;-72
2023/08/20 03:55:41;;;;;;;0.60;0.40;;;26.50;30.90;;;;;;5113342;28;20565;-69
2023/08/20 03:58:09;;;;;;;0.50;0.40;;;25.30;35.20;;;;;;5113269;28;20181;-69
2023/08/20 04:00:36;;;;;;;0.60;0.50;;;25.40;33.60;;;;;;5113062;28;20166;-69
2023/08/20 04:03:04;;;;;;;0.53;0.50;;;25.30;33.30;;;;;;5113050;28;20178;-70
2023/08/20 04:05:40;;;;;;;2.03;0.60;;;25.60;34.70;;;;;;5112934;28;20213;-70
2023/08/20 04:08:07;;;;;;;0.67;0.40;;;25.90;34.40;;;;;;5112724;28;20173;-69
2023/08/20 04:10:35;;;;;;;0.40;0.40;;;26.30;35.40;;;;;;5113157;28;20582;-70
2023/08/20 04:13:02;;;;;;;0.50;0.40;;;26.20;33.30;;;;;;5113521;28;20174;-70
2023/08/20 04:15:30;;;;;;;0.60;0.50;;;25.80;34.00;;;;;;5114153;28;20202;-70
2023/08/20 04:17:57;;;;;;;0.60;0.40;;;26.10;36.70;;;;;;5114033;28;20231;-69
2023/08/20 04:20:25;;;;;;;1.57;0.50;;;26.80;35.30;;;;;;5114001;28;20317;-69
2023/08/20 04:22:52;;;;;;;0.63;0.50;;;26.80;32.10;;;;;;5114420;28;20654;-69
2023/08/20 04:25:19;;;;;;;2.93;0.30;;;26.70;29.70;;;;;;5114051;28;20233;-69
2023/08/20 04:27:51;;;;;;;0.60;0.50;;;26.30;34.00;;;;;;5113073;28;20190;-70
2023/08/20 04:30:18;;;;;;;0.90;0.40;;;26.50;34.10;;;;;;5114150;28;20198;-69
2023/08/20 04:32:46;;;;;;;0.90;0.40;;;26.30;29.40;;;;;;5114127;28;20231;-70
2023/08/20 04:35:13;;;;;;;0.40;0.40;;;26.10;30.60;;;;;;5114092;28;20672;-70
2023/08/20 04:37:40;;;;;;;0.67;0.47;;;26.50;33.30;;;;;;5113736;28;20178;-69
2023/08/20 04:40:08;;;;;;;0.40;0.40;;;26.60;32.50;;;;;;5113235;28;20593;-69
2023/08/20 04:42:35;;;;;;;0.50;0.50;;;26.60;31.40;;;;;;5113419;27;20179;-69
2023/08/20 04:45:03;;;;;;;0.70;0.60;;;26.50;29.80;;;;;;5113720;28;20289;-69
2023/08/20 04:47:30;;;;;;;0.87;0.53;;;25.80;30.20;;;;;;5113677;28;20577;-71
2023/08/20 04:49:57;;;;;;;0.40;0.40;;;25.80;33.20;;;;;;5113869;28;20174;-71
2023/08/20 04:52:25;;;;;;;0.80;0.37;;;25.70;31.60;;;;;;5114096;28;20203;-70
2023/08/20 04:54:52;;;;;;;2.47;0.57;;;25.30;30.80;;;;;;5113761;28;20170;-71
2023/08/20 04:57:20;;;;;;;1.30;0.50;;;25.60;32.70;;;;;;5113625;28;20182;-71
2023/08/20 04:59:47;;;;;;;0.50;0.50;;;25.40;29.50;;;;;;5113635;28;20185;-71
2023/08/20 05:02:14;;;;;;;0.83;0.60;;;25.40;30.90;;;;;;5113617;28;20654;-71
2023/08/20 05:04:42;;;;;;;0.60;0.43;;;25.00;30.00;;;;;;5113426;28;20202;-71
2023/08/20 05:07:09;;;;;;;0.60;0.50;;;25.00;29.80;;;;;;5113495;28;20186;-71
2023/08/20 05:09:36;;;;;;;0.87;0.50;;;24.80;31.10;;;;;;5113451;28;20167;-71
2023/08/20 05:12:04;;;;;;;0.50;0.50;;;24.60;32.70;;;;;;5113746;28;20632;-71
2023/08/20 05:14:32;;;;;;;1.90;0.50;;;24.70;33.00;;;;;;5113352;28;20171;-71
2023/08/20 05:16:59;;;;;;;0.50;0.50;;;24.50;35.20;;;;;;5116671;27;20246;-71
2023/08/20 05:19:27;;;;;;;0.67;0.50;;;24.50;34.20;;;;;;5119404;27;20224;-69
2023/08/20 05:21:58;;;;;;;0.50;0.43;;;24.40;32.60;;;;;;5116779;28;20611;-70
2023/08/20 05:24:26;;;;;;;1.27;0.50;;;24.30;33.00;;;;;;5095172;28;20513;-70
2023/08/20 05:27:19;;;;;;;1.77;0.60;;;24.10;32.20;;;;;;5094503;28;20649;-71
2023/08/20 05:29:46;;;;;;;0.70;0.40;;;24.10;35.20;;;;;;5110115;28;20190;-73
2023/08/20 05:32:16;;;;;;;0.80;0.40;;;23.90;33.30;;;;;;5111483;28;20182;-73
2023/08/20 05:34:43;;;;;;;1.50;0.90;;;24.00;34.40;;;;;;5110835;28;20626;-72
2023/08/20 05:37:11;;;;;;;1.83;1.00;;;24.00;33.70;;;;;;5111876;28;20287;-72
2023/08/20 05:39:41;;;;;;;0.90;0.70;;;23.90;35.00;;;;;;5110905;28;20186;-71
2023/08/20 05:42:08;;;;;;;1.07;0.87;;;23.70;34.40;;;;;;5104612;28;20647;-72
2023/08/20 05:44:36;;;;;;;0.77;0.70;;;23.90;36.40;;;;;;5111610;28;20210;-72
2023/08/20 05:47:05;;;;;;;0.87;0.80;;;23.60;33.60;;;;;;5111465;28;20663;-71
2023/08/20 05:49:32;;;;;;;0.70;0.67;;;23.60;34.60;;;;;;5111125;28;20186;-73
2023/08/20 05:52:00;;;;;;;1.10;0.57;;;23.40;34.40;;;;;;5111898;28;20171;-73
2023/08/20 05:54:27;;;;;;;1.13;0.60;;;23.30;36.00;;;;;;5115652;28;20692;-73
2023/08/20 05:56:54;;;;;;;0.70;0.70;;;23.40;36.40;;;;;;5115327;28;20179;-68
2023/08/20 05:59:22;;;;;;;1.90;0.90;;;23.40;34.30;;;;;;5115176;28;20197;-70
2023/08/20 06:01:49;;;;;;;1.17;0.87;;;23.30;35.40;;;;;;5122400;27;20280;-71
2023/08/20 06:04:18;;;;;;;1.23;0.87;;;22.90;37.20;;;;;;5123862;27;20631;-70
2023/08/20 06:06:45;;;;;;;1.77;1.37;;;22.80;37.70;;;;;;5124161;27;20193;-69
2023/08/20 06:09:13;;;;;;;1.77;1.20;;;22.70;38.90;;;;;;5121868;27;20181;-70
2023/08/20 06:11:40;;;;;;;1.10;0.80;;;22.30;40.40;;;;;;5122821;27;20180;-70
2023/08/20 06:14:07;;;;;;;1.23;0.80;;;22.10;40.70;;;;;;5125498;27;20205;-71
2023/08/20 06:16:35;;;;;;;2.53;0.80;;;22.20;43.20;;;;;;5123188;27;20189;-72
2023/08/20 06:19:04;;;;;;;2.27;1.00;;;22.20;42.50;;;;;;5121125;27;20297;-72
2023/08/20 06:21:31;;;;;;;1.30;0.90;;;22.20;43.90;;;;;;5126193;27;20171;-72
2023/08/20 06:23:58;;;;;;;2.50;1.27;;;22.10;44.10;;;;;;5115168;27;20683;-71
2023/08/20 06:26:26;;;;;;;1.30;0.90;;;22.10;44.30;;;;;;5114101;28;20189;-71
2023/08/20 06:28:53;;;;;;;1.37;0.80;;;22.20;44.30;;;;;;5129642;27;20652;-70
2023/08/20 06:31:20;;;;;;;3.37;1.20;;;22.20;44.50;;;;;;5114234;28;20595;-72
2023/08/20 06:33:48;;;;;;;1.00;0.77;;;22.20;44.60;;;;;;5114005;28;20185;-72
2023/08/20 06:36:15;;;;;;;0.90;0.60;;;22.00;47.10;;;;;;5114236;28;20179;-73
2023/08/20 06:38:43;;;;;;;2.40;0.90;;;21.90;48.00;;;;;;5121575;27;20229;-72
2023/08/20 06:41:10;;;;;;;1.50;0.80;;;21.80;50.40;;;;;;5113839;28;20186;-72
2023/08/20 06:43:38;;;;;;;2.17;0.77;;;21.50;51.20;;;;;;5095922;28;20682;-71
2023/08/20 06:46:05;;;;;;;1.60;0.60;;;21.20;54.40;;;;;;5114701;28;20186;-72
2023/08/20 06:48:32;;;;;;;1.53;0.80;;;20.90;56.30;;;;;;5113999;28;20171;-71
2023/08/20 06:51:07;;;;;;;1.97;0.70;;;20.70;57.90;;;;;;5114640;28;20181;-72
2023/08/20 06:53:35;;;;;;;1.17;0.70;;;20.60;60.50;;;;;;5096030;28;20189;-72
2023/08/20 06:56:02;;;;;;;0.97;0.70;;;20.50;63.40;;;;;;5113868;28;20672;-68
2023/08/20 06:58:29;;;;;;;1.40;0.70;;;20.30;65.70;;;;;;5114346;28;20175;-71
2023/08/20 07:01:06;;;;;;;1.03;0.70;;;20.20;69.20;;;;;;5114151;28;20273;-71
2023/08/20 07:03:42;;;;;;;1.67;1.00;;;20.00;72.20;;;;;;5113339;28;20219;-72
2023/08/20 07:06:10;;;;;;;1.80;0.70;;;19.90;75.90;;;;;;5099025;28;20201;-72
2023/08/20 07:08:39;;;;;;;1.53;0.60;;;19.70;78.40;;;;;;5114002;28;20171;-71
2023/08/20 07:11:07;;;;;;;0.90;0.70;;;19.70;81.00;;;;;;5113993;28;20671;-70
2023/08/20 07:13:34;;;;;;;2.70;0.90;;;19.60;82.50;;;;;;5113817;28;20782;-71
2023/08/20 07:16:02;;;;;;;1.07;0.80;;;19.50;85.60;;;;;;5114322;28;20181;-70
2023/08/20 07:18:30;;;;;;;1.50;0.90;;;19.50;87.40;;;;;;5112796;28;20222;-70
2023/08/20 07:20:57;;;;;;;3.00;0.70;;;19.40;90.20;;;;;;5114181;28;20178;-71
2023/08/20 07:23:25;;;;;;;1.83;0.80;;;19.30;92.00;;;;;;5125181;27;20182;-71
2023/08/20 07:26:04;;;;;;;2.00;1.10;;;19.20;92.80;;;;;;5134130;27;20214;-70
2023/08/20 07:31:16;;;;;;;3.03;1.10;;;19.10;96.00;;;;;;5136004;27;20193;-71
2023/08/20 07:33:47;;;;;;;1.00;0.83;;;19.00;97.60;;;;;;5135906;27;20171;-70
2023/08/20 07:36:15;;;;;;;1.27;0.80;;;19.00;97.70;;;;;;5135707;27;20188;-71
2023/08/20 07:38:43;;;;;;;1.67;0.90;;;18.90;98.60;;;;;;5135878;27;20201;-70
2023/08/20 07:41:12;;;;;;;3.70;1.40;;;18.80;98.60;;;;;;5116219;27;20185;-71
2023/08/20 07:43:40;;;;;;;1.60;1.10;;;18.80;99.90;;;;;;5125212;27;20694;-71
2023/08/20 07:46:08;;;;;;;2.30;0.87;;;18.60;99.90;;;;;;5107562;27;20592;-71
2023/08/20 07:48:36;;;;;;;1.40;1.00;;;18.60;99.90;;;;;;5135485;27;20185;-71
2023/08/20 07:51:04;;;;;;;2.57;1.17;;;18.60;99.90;;;;;;5135509;27;20607;-70
2023/08/20 07:53:32;;;;;;;1.77;1.20;;;18.40;99.90;;;;;;5135491;27;20310;-69
2023/08/20 07:56:00;;;;;;;1.97;1.20;;;18.30;99.90;;;;;;5135482;27;20217;-70
2023/08/20 07:58:28;;;;;;;3.47;1.37;;;18.20;99.90;;;;;;5135152;27;20175;-70
2023/08/20 08:00:56;;;;;;;2.57;1.20;;;18.10;99.90;;;;;;5135415;27;20223;-71
2023/08/20 08:03:24;;;;;;;1.60;0.90;;;18.00;99.90;;;;;;5135333;27;20285;-71
2023/08/20 08:05:53;;;;;;;1.83;1.17;;;17.90;99.90;;;;;;5135344;27;20216;-71
2023/08/20 08:08:21;;;;;;;5.63;1.17;;;17.90;99.90;;;;;;5134466;27;20225;-71
2023/08/20 08:10:49;;;;;;;1.83;1.10;;;17.80;99.90;;;;;;5135133;27;20179;-70
2023/08/20 08:13:20;;;;;;;1.90;0.90;;;17.60;99.90;;;;;;5135391;27;20253;-70
2023/08/20 08:15:48;;;;;;;2.20;1.20;;;17.40;99.90;;;;;;5134839;27;20264;-70
2023/08/20 08:18:16;;;;;;;2.13;0.97;;;17.30;99.90;;;;;;5134962;27;20616;-69
2023/08/20 08:20:44;;;;;;;1.60;1.10;;;17.20;99.90;;;;;;5116660;27;20193;-70
2023/08/20 08:23:11;;;;;;;2.47;1.17;;;17.20;99.90;;;;;;5134866;27;20178;-70
2023/08/20 08:25:38;;;;;;;1.77;1.07;;;17.20;99.90;;;;;;5134864;27;20218;-70
2023/08/20 08:28:06;;;;;;;1.20;1.00;;;17.20;99.90;;;;;;5134723;27;20180;-70
2023/08/20 08:30:34;;;;;;;1.93;1.03;;;17.20;99.90;;;;;;5134940;27;20197;-70
2023/08/20 08:33:01;;;;;;;2.13;1.07;;;17.10;99.90;;;;;;5134806;27;20657;-70
2023/08/20 08:35:29;;;;;;;1.70;1.00;;;17.00;99.90;;;;;;5134935;27;20772;-71
2023/08/20 08:37:57;;;;;;;2.20;1.27;;;16.90;99.90;;;;;;5134561;27;20184;-71
2023/08/20 08:40:30;;;;;;;1.90;1.33;;;16.90;99.90;;;;;;5134768;27;20168;-71
2023/08/20 08:42:58;;;;;;;1.57;1.30;;;16.80;99.90;;;;;;5116233;27;20179;-71
2023/08/20 08:45:27;;;;;;;1.67;1.27;;;16.80;99.90;;;;;;5134550;27;20214;-71
2023/08/20 08:47:55;;;;;;;2.57;1.20;;;16.80;99.90;;;;;;5122538;27;20176;-71
2023/08/20 08:50:23;;;;;;;2.33;1.43;;;16.80;99.90;;;;;;5113535;28;20684;-71
2023/08/20 08:52:54;;;;;;;3.30;1.37;;;16.80;99.90;;;;;;5113846;28;20712;-70
2023/08/20 08:55:22;;;;;;;2.73;1.47;;;16.70;99.90;;;;;;5095722;28;20189;-70
2023/08/20 08:57:49;;;;;;;3.57;1.40;;;16.70;99.90;;;;;;5113180;28;20661;-71
2023/08/20 09:00:17;;;;;;;3.77;1.50;;;16.80;99.90;;;;;;5112956;28;20222;-69
2023/08/20 09:02:44;;;;;;;4.13;1.50;;;16.80;99.90;;;;;;5112849;28;20174;-70
2023/08/20 09:05:14;;;;;;;2.37;1.30;;;16.80;99.90;;;;;;5112994;28;20209;-70
2023/08/20 09:07:45;;;;;;;1.47;1.33;;;16.80;99.90;;;;;;5094738;28;20174;-69
2023/08/20 09:10:13;;;;;;;1.80;1.30;;;16.90;99.90;;;;;;5112881;28;20276;-71
2023/08/20 09:12:40;;;;;;;2.20;1.30;;;16.90;99.90;;;;;;5113321;28;20247;-70
2023/08/20 09:15:11;;;;;;;2.07;1.10;;;16.90;99.90;;;;;;5112777;28;20201;-70
2023/08/20 09:17:42;;;;;;;2.47;1.30;;;16.90;99.90;;;;;;5087739;28;20193;-72
2023/08/20 09:20:10;;;;;;;1.60;1.30;;;17.10;99.90;;;;;;5111341;28;20317;-71
2023/08/20 09:22:37;;;;;;;3.30;1.40;;;16.90;99.90;;;;;;5091175;28;20593;-70
2023/08/20 09:25:05;;;;;;;2.60;1.23;;;16.90;99.90;;;;;;5072200;28;20203;-70
2023/08/20 09:27:42;;;;;;;1.50;1.40;;;16.90;99.90;;;;;;5105687;27;20209;-71
2023/08/20 09:30:10;;;;;;;2.30;1.30;;;16.70;99.90;;;;;;5118331;28;20273;-70
2023/08/20 09:32:37;;;;;;;4.17;1.50;;;16.70;99.90;;;;;;5117304;28;20185;-69
2023/08/20 09:35:06;;;;;;;4.27;1.50;;;16.70;99.90;;;;;;5118325;28;20183;-69
2023/08/20 09:37:34;;;;;;;2.30;1.87;;;16.70;99.90;;;;;;5118107;28;20704;-70
2023/08/20 09:40:02;;;;;;;3.70;1.90;;;16.60;99.90;;;;;;5116882;28;20254;-71
2023/08/20 09:42:33;;;;;;;3.13;1.80;;;16.60;99.90;;;;;;5117848;28;20246;-74
2023/08/20 09:45:04;;;;;;;3.10;2.10;;;16.50;99.90;;;;;;5117289;28;20229;-70
2023/08/20 09:47:36;;;;;;;2.60;1.70;;;16.50;99.90;;;;;;5117479;28;20178;-71
2023/08/20 09:50:11;;;;;;;2.27;1.77;;;16.40;99.90;;;;;;5117883;28;20582;-71
2023/08/20 09:52:49;;;;;;;1.90;1.33;;;16.30;99.90;;;;;;5118091;28;20185;-73
2023/08/20 09:55:24;;;;;;;2.77;1.50;;;16.20;99.90;;;;;;5117933;28;20174;-70
2023/08/20 09:57:52;;;;;;;2.60;1.57;;;16.10;99.90;;;;;;5117337;28;20227;-72
2023/08/20 10:00:20;;;;;;;1.70;1.50;;;16.00;99.90;;;;;;5118047;28;20190;-72
2023/08/20 10:02:48;;;;;;;3.70;1.97;;;15.90;99.90;;;;;;5117509;28;20253;-70
2023/08/20 10:05:16;;;;;;;2.03;1.57;;;15.80;99.90;;;;;;5099671;28;20664;-72
2023/08/20 10:07:44;;;;;;;2.97;1.80;;;15.70;99.90;;;;;;5117669;28;20235;-72
2023/08/20 10:10:14;;;;;;;3.77;1.80;;;15.60;99.90;;;;;;5117201;28;20186;-73
2023/08/20 10:12:43;;;;;;;2.93;1.80;;;15.50;99.90;;;;;;5117901;28;20260;-70
2023/08/20 10:15:12;;;;;;;2.77;1.90;;;15.50;99.90;;;;;;5099613;28;20680;-71
2023/08/20 10:17:45;;;;;;;6.10;2.30;;;15.40;99.90;;;;;;5117207;28;20193;-71
2023/08/20 10:20:18;;;;;;;3.10;2.07;;;15.30;99.90;;;;;;5117482;28;20242;-71
2023/08/20 10:22:46;;;;;;;3.67;2.00;;;15.30;99.90;;;;;;5117788;28;20190;-72
2023/08/20 10:25:24;;;;;;;2.33;1.90;;;15.40;99.90;;;;;;5117036;28;20206;-70
2023/08/20 10:27:52;;;;;;;3.43;1.90;;;15.30;99.90;;;;;;5117130;28;20228;-70
2023/08/20 10:30:25;;;;;;;4.30;2.47;;;15.10;99.90;;;;;;5117679;28;20260;-71
2023/08/20 10:33:03;;;;;;;2.60;1.80;;;15.10;99.90;;;;;;5117148;28;20189;-70
2023/08/20 10:35:39;;;;;;;3.13;2.03;;;14.90;99.90;;;;;;5117716;28;20658;-72
2023/08/20 10:38:17;;;;;;;2.77;1.87;;;14.90;99.90;;;;;;5115238;28;20189;-71
2023/08/20 10:40:58;;;;;;;5.67;2.00;;;14.90;99.90;;;;;;5114518;28;20553;-71
2023/08/20 10:43:37;;;;;;;2.03;1.83;;;14.90;99.90;;;;;;5114028;28;20220;-70
2023/08/20 10:46:16;;;;;;;3.80;2.10;;;14.90;99.90;;;;;;5113702;28;20243;-70
2023/08/20 10:49:12;;;;;;;2.37;1.93;;;14.80;99.90;;;;;;5114059;28;20174;-69
2023/08/20 10:51:41;;;;;;;4.97;2.13;;;14.70;99.90;;;;;;5096864;28;20190;-69
2023/08/20 10:54:10;;;;;;;4.50;2.33;;;14.60;99.90;;;;;;5113531;28;20190;-71
2023/08/20 10:56:45;;;;;;;6.37;2.37;;;14.60;99.90;;;;;;5113363;28;20217;-70
2023/08/20 10:59:17;;;;;;;4.50;2.80;;;14.50;99.90;;;;;;5114238;28;20213;-72
2023/08/20 11:01:52;;;;;;;5.00;2.90;;;14.40;99.90;;;;;;5113405;28;20592;-70
2023/08/20 11:04:21;;;;;;;4.93;2.67;;;14.40;99.90;;;;;;5113576;28;20222;-70
2023/08/20 11:06:55;;;;;;;5.23;2.40;;;14.40;99.90;;;;;;5114024;28;20231;-71
2023/08/20 11:09:27;;;;;;;5.10;2.60;;;14.30;99.90;;;;;;5113492;28;20592;-72
2023/08/20 11:11:54;;;;;;;2.87;2.10;;;14.20;99.90;;;;;;5113698;28;20560;-69
2023/08/20 11:14:22;;;;;;;4.60;2.67;;;14.20;99.90;;;;;;5113407;28;20191;-70
2023/08/20 11:16:50;;;;;;;3.70;2.27;;;14.20;99.90;;;;;;5095340;28;20195;-72
2023/08/20 11:19:23;;;;;;;4.10;2.50;;;14.20;99.90;;;;;;5095261;28;20236;-71
2023/08/20 11:21:52;;;;;;;3.40;2.43;;;14.20;99.90;;;;;;5113209;28;20933;-71
2023/08/20 11:24:20;;;;;;;4.40;2.40;;;14.10;99.90;;;;;;5112970;28;20217;-72
2023/08/20 11:26:48;;;;;;;3.87;2.10;;;14.20;99.90;;;;;;5112893;28;20182;-70
2023/08/20 11:29:22;;;;;;;5.13;2.53;;;14.20;99.90;;;;;;5095261;28;20271;-70
2023/08/20 11:31:51;;;;;;;2.97;2.20;;;14.20;99.90;;;;;;5094316;28;20701;-70
2023/08/20 11:34:21;;;;;;;3.57;2.20;;;14.20;99.90;;;;;;5113173;28;20313;-70
2023/08/20 11:36:49;;;;;;;5.07;2.27;;;14.30;99.90;;;;;;5113365;28;20173;-70
2023/08/20 11:39:17;;;;;;;6.30;2.50;;;14.30;99.90;;;;;;5112245;28;20182;-69
2023/08/20 11:41:45;;;;;;;4.23;2.20;;;14.30;99.90;;;;;;5081430;28;20180;-70
2023/08/20 11:44:21;;;;;;;3.30;2.23;;;14.20;99.90;;;;;;5094785;28;20675;-68
2023/08/20 11:46:49;;;;;;;6.17;2.60;;;14.20;99.90;;;;;;5114983;28;20182;-71
2023/08/20 11:49:16;;;;;;;5.77;2.63;;;14.20;99.90;;;;;;5114097;28;20278;-70
2023/08/20 11:51:49;;;;;;;3.97;2.50;;;14.20;99.90;;;;;;5113847;28;20179;-69
2023/08/20 11:54:18;;;;;;;3.90;2.67;;;14.30;99.90;;;;;;5095736;28;20715;-69
2023/08/20 11:56:49;;;;;;;2.93;2.30;;;14.20;99.90;;;;;;5095861;28;20231;-69
2023/08/20 11:59:20;;;;;;;3.03;2.03;;;14.20;99.90;;;;;;5114726;28;20174;-70
2023/08/20 12:01:57;;;;;;;3.23;2.13;;;14.30;99.90;;;;;;5114319;28;20189;-70
2023/08/20 12:04:27;;;;;;;4.47;2.43;;;14.30;99.90;;;;;;5114134;28;20702;-70
2023/08/20 12:07:08;;;;;;;3.77;2.33;;;14.30;99.90;;;;;;5112148;28;20199;-69
2023/08/20 12:09:36;;;;;;;5.63;2.17;;;14.30;99.90;;;;;;5113067;28;20639;-71
2023/08/20 12:12:06;;;;;;;3.67;2.33;;;14.30;99.90;;;;;;5113987;28;20192;-71
2023/08/20 12:14:34;;;;;;;3.43;2.30;;;14.30;99.90;;;;;;5113776;28;20647;-69
2023/08/20 12:17:03;;;;;;;4.73;2.33;;;14.30;99.90;;;;;;5113806;28;20180;-72
2023/08/20 12:19:30;;;;;;;5.03;2.37;;;14.30;99.90;;;;;;5114048;28;20282;-70
2023/08/20 12:21:57;;;;;;;5.00;2.33;;;14.30;99.90;;;;;;5113672;28;20720;-70
2023/08/20 12:24:25;;;;;;;3.17;2.20;;;14.20;99.90;;;;;;5113760;28;20208;-70
2023/08/20 12:26:53;;;;;;;4.23;2.60;;;14.20;99.90;;;;;;5113844;28;20246;-69
2023/08/20 12:29:20;;;;;;;5.50;2.47;;;14.20;99.90;;;;;;5113891;28;20178;-70
2023/08/20 12:31:48;;;;;;;4.07;2.50;;;14.10;99.90;;;;;;5113196;28;20250;-70
2023/08/20 12:34:15;;;;;;;4.77;2.30;;;14.10;99.90;;;;;;5113661;28;20199;-70
2023/08/20 12:36:42;;;;;;;6.20;2.77;;;14.00;99.90;;;;;;5113144;28;20174;-70
2023/08/20 12:39:10;;;;;;;7.13;3.30;;;14.00;99.90;;;;;;5113594;28;20338;-69
2023/08/20 12:41:38;;;;;;;6.87;3.50;;;14.00;99.90;;;;;;5113436;28;20262;-70
2023/08/20 12:44:05;;;;;;;7.07;2.93;;;13.90;99.90;;;;;;5113385;27;20546;-70
2023/08/20 12:46:33;;;;;;;6.40;2.80;;;13.90;99.90;;;;;;5113118;28;20198;-70
2023/08/20 12:49:00;;;;;;;3.70;3.00;;;13.80;99.90;;;;;;5116429;27;20654;-69
2023/08/20 12:51:28;;;;;;;8.30;3.13;;;13.70;99.90;;;;;;5119778;27;20185;-70
2023/08/20 12:53:55;;;;;;;4.93;2.50;;;13.60;99.90;;;;;;5118192;27;20269;-70
2023/08/20 12:56:23;;;;;;;7.13;3.30;;;13.50;99.90;;;;;;5113483;28;20189;-70
2023/08/20 12:58:50;;;;;;;5.47;3.17;;;13.40;99.90;;;;;;5113780;28;20183;-71
2023/08/20 13:01:19;;;;;;;5.53;2.83;;;13.30;99.90;;;;;;5117187;28;20191;-70
2023/08/20 13:03:46;;;;;;;5.37;2.33;;;13.20;99.90;;;;;;5113124;28;20185;-70